createdAt,value
2018-07-11T00:00:48.303Z,65.60
2018-07-11T00:03:35.153Z,65.50
2018-07-11T00:06:06.835Z,65.80
2018-07-11T00:08:37.661Z,65.10
2018-07-11T00:11:12.843Z,65.10
2018-07-11T00:13:45.743Z,64.90
2018-07-11T00:16:18.189Z,64.80
2018-07-11T00:18:49.418Z,64.70
2018-07-11T00:21:19.585Z,64.90
2018-07-11T00:23:49.753Z,64.40
2018-07-11T00:26:19.972Z,64.40
2018-07-11T00:28:51.004Z,64.10
2018-07-11T00:31:21.357Z,64.00
2018-07-11T00:33:51.636Z,64.00
2018-07-11T00:36:21.904Z,63.40
2018-07-11T00:38:52.677Z,63.50
2018-07-11T00:41:22.888Z,63.50
2018-07-11T00:43:53.583Z,63.80
2018-07-11T00:46:23.775Z,63.50
2018-07-11T00:48:54.065Z,63.90
2018-07-11T00:51:24.235Z,63.60
2018-07-11T00:53:54.605Z,63.70
2018-07-11T00:56:25.555Z,64.00
2018-07-11T00:59:10.503Z,63.70
2018-07-11T01:01:42.930Z,63.70
2018-07-11T01:04:13.919Z,64.00
2018-07-11T01:06:44.427Z,64.40
2018-07-11T01:09:14.647Z,64.40
2018-07-11T01:11:46.590Z,64.30
2018-07-11T01:14:17.115Z,64.70
2018-07-11T01:16:47.227Z,64.40
2018-07-11T01:19:18.845Z,64.30
2018-07-11T01:21:59.049Z,64.30
2018-07-11T01:24:30.588Z,64.50
2018-07-11T01:27:01.601Z,64.40
2018-07-11T01:29:31.863Z,65.00
2018-07-11T01:32:02.076Z,64.60
2018-07-11T01:34:32.262Z,64.30
2018-07-11T01:37:02.913Z,64.20
2018-07-11T01:39:33.174Z,64.20
2018-07-11T01:42:03.387Z,64.30
2018-07-11T01:44:33.731Z,64.50
2018-07-11T01:47:03.996Z,64.10
2018-07-11T01:49:34.254Z,64.10
2018-07-11T01:52:21.199Z,64.00
2018-07-11T01:54:51.402Z,64.20
2018-07-11T01:57:21.673Z,64.90
2018-07-11T01:59:51.946Z,64.60
2018-07-11T02:02:22.107Z,65.80
2018-07-11T02:04:52.310Z,66.00
2018-07-11T02:07:22.473Z,65.60
2018-07-11T02:09:52.692Z,65.60
2018-07-11T02:12:23.083Z,65.30
2018-07-11T02:14:58.440Z,65.30
2018-07-11T02:17:28.698Z,65.80
2018-07-11T02:22:39.511Z,66.60
2018-07-11T02:25:10.154Z,67.00
2018-07-11T02:27:40.426Z,68.10
2018-07-11T02:30:10.671Z,69.70
2018-07-11T02:32:40.806Z,70.70
2018-07-11T02:35:11.005Z,71.10
2018-07-11T02:37:42.224Z,72.00
2018-07-11T02:40:13.239Z,72.20
2018-07-11T02:42:43.385Z,73.30
2018-07-11T02:45:13.918Z,74.10
2018-07-11T02:47:44.988Z,75.20
2018-07-11T02:50:15.295Z,75.90
2018-07-11T02:52:45.484Z,76.70
2018-07-11T02:55:15.608Z,77.20
2018-07-11T02:57:46.158Z,77.80
2018-07-11T03:00:16.598Z,78.20
2018-07-11T03:02:48.180Z,77.40
2018-07-11T03:05:18.364Z,79.00
2018-07-11T03:07:48.575Z,78.10
2018-07-11T03:10:19.654Z,78.70
2018-07-11T03:12:50.720Z,79.00
2018-07-11T03:15:20.935Z,79.50
2018-07-11T03:17:51.035Z,79.70
2018-07-11T03:20:21.136Z,79.50
2018-07-11T03:22:51.554Z,79.40
2018-07-11T03:25:21.661Z,79.60
2018-07-11T03:27:51.831Z,79.80
2018-07-11T03:30:22.018Z,79.50
2018-07-11T03:32:52.261Z,80.30
2018-07-11T03:35:22.818Z,80.40
2018-07-11T03:37:53.245Z,80.30
2018-07-11T03:40:23.497Z,80.50
2018-07-11T03:42:53.512Z,80.80
2018-07-11T03:45:24.441Z,80.60
2018-07-11T03:47:54.562Z,80.50
2018-07-11T03:50:24.588Z,80.80
2018-07-11T03:52:54.578Z,81.50
2018-07-11T03:55:24.584Z,80.90
2018-07-11T03:57:55.040Z,81.80
2018-07-11T04:00:26.601Z,82.60
2018-07-11T04:05:27.257Z,84.50
2018-07-11T04:07:57.443Z,85.20
2018-07-11T04:10:28.031Z,86.20
2018-07-11T04:13:00.481Z,86.50
2018-07-11T04:15:30.517Z,87.20
2018-07-11T04:18:00.717Z,87.40
2018-07-11T04:20:30.933Z,87.30
2018-07-11T04:23:01.610Z,87.20
2018-07-11T04:25:32.340Z,87.20
2018-07-11T04:28:02.631Z,87.20
2018-07-11T04:30:33.605Z,87.10
2018-07-11T04:33:04.599Z,87.20
2018-07-11T04:35:34.712Z,87.50
2018-07-11T04:38:04.857Z,87.30
2018-07-11T04:40:35.163Z,88.00
2018-07-11T04:43:06.103Z,88.20
2018-07-11T04:50:38.335Z,88.10
2018-07-11T04:53:10.304Z,88.10
2018-07-11T04:55:43.275Z,87.90
2018-07-11T04:58:13.404Z,88.20
2018-07-11T05:00:43.708Z,88.20
2018-07-11T05:03:13.870Z,88.50
2018-07-11T05:08:13.977Z,88.50
2018-07-11T05:10:44.257Z,88.40
2018-07-11T05:13:14.301Z,88.40
2018-07-11T05:15:44.497Z,88.30
2018-07-11T05:18:15.379Z,88.40
2018-07-11T05:20:46.337Z,89.10
2018-07-11T05:23:16.814Z,88.50
2018-07-11T05:25:46.965Z,88.30
2018-07-11T05:28:17.703Z,88.40
2018-07-11T05:30:48.591Z,88.30
2018-07-11T05:33:20.272Z,88.00
2018-07-11T05:35:50.955Z,88.40
2018-07-11T05:38:21.177Z,88.30
2018-07-11T05:40:51.311Z,88.00
2018-07-11T05:43:22.251Z,89.00
2018-07-11T05:45:52.687Z,88.30
2018-07-11T05:48:24.375Z,88.50
2018-07-11T05:50:54.528Z,88.50
2018-07-11T05:53:25.309Z,88.80
2018-07-11T05:55:55.512Z,88.60
2018-07-11T05:58:25.677Z,88.70
2018-07-11T06:00:55.836Z,88.30
2018-07-11T06:03:25.991Z,88.00
2018-07-11T06:05:56.200Z,87.70
2018-07-11T06:08:26.339Z,87.40
2018-07-11T06:10:56.505Z,87.80
2018-07-11T06:13:26.649Z,87.00
2018-07-11T06:18:26.553Z,86.80
2018-07-11T06:20:56.867Z,86.30
2018-07-11T06:23:26.951Z,86.10
2018-07-11T06:25:57.189Z,85.10
2018-07-11T06:28:27.844Z,84.50
2018-07-11T06:30:57.934Z,83.50
2018-07-11T06:33:28.074Z,83.20
2018-07-11T06:35:58.166Z,83.10
2018-07-11T06:38:28.359Z,82.80
2018-07-11T06:40:58.567Z,83.00
2018-07-11T06:43:28.739Z,82.60
2018-07-11T06:48:28.824Z,83.30
2018-07-11T06:50:59.162Z,83.70
2018-07-11T06:53:29.355Z,84.30
2018-07-11T06:55:59.564Z,84.50
2018-07-11T06:58:29.573Z,84.80
2018-07-11T07:00:59.764Z,84.50
2018-07-11T07:03:30.131Z,85.00
2018-07-11T07:06:00.291Z,84.90
2018-07-11T07:08:30.355Z,85.10
2018-07-11T07:11:00.442Z,85.00
2018-07-11T07:16:01.036Z,84.50
2018-07-11T07:18:31.640Z,84.50
2018-07-11T07:21:01.805Z,83.50
2018-07-11T07:23:31.972Z,83.40
2018-07-11T07:26:12.993Z,81.70
2018-07-11T07:28:43.231Z,80.90
2018-07-11T07:31:13.436Z,80.20
2018-07-11T07:33:43.554Z,78.10
2018-07-11T07:36:13.784Z,76.60
2018-07-11T07:38:44.927Z,76.80
2018-07-11T07:41:15.063Z,73.90
2018-07-11T07:43:45.419Z,73.00
2018-07-11T07:46:15.681Z,72.50
2018-07-11T07:48:45.868Z,72.10
2018-07-11T07:51:16.433Z,72.10
2018-07-11T07:53:46.809Z,70.20
2018-07-11T07:56:18.035Z,68.20
2018-07-11T07:58:48.306Z,68.40
2018-07-11T08:03:48.662Z,69.10
2018-07-11T08:06:19.824Z,68.10
2018-07-11T08:08:50.034Z,68.70
2018-07-11T08:11:20.702Z,68.10
2018-07-11T08:13:51.080Z,67.30
2018-07-11T08:16:21.296Z,65.70
2018-07-11T08:18:51.488Z,64.90
2018-07-11T08:21:21.728Z,64.10
2018-07-11T08:24:08.896Z,63.20
2018-07-11T08:31:40.555Z,61.90
2018-07-11T08:35:30.780Z,62.40
2018-07-11T08:38:30.082Z,62.60
2018-07-11T08:43:22.020Z,62.00
2018-07-11T08:46:24.914Z,62.50
2018-07-11T08:53:27.600Z,62.60
2018-07-11T08:58:15.625Z,62.30
2018-07-11T09:01:32.705Z,63.30
2018-07-11T09:04:50.237Z,62.90
2018-07-11T09:09:41.867Z,62.50
2018-07-11T09:12:39.769Z,63.40
2018-07-11T09:16:38.694Z,62.30
2018-07-11T09:20:20.935Z,63.00
2018-07-11T09:24:12.648Z,60.00
2018-07-11T09:26:42.802Z,59.30
2018-07-11T09:29:12.910Z,59.50
2018-07-11T09:31:43.513Z,60.50
2018-07-11T09:34:13.806Z,60.60
2018-07-11T09:36:43.955Z,60.20
2018-07-11T09:39:14.294Z,60.20
2018-07-11T09:41:44.605Z,58.90
2018-07-11T09:44:14.761Z,59.00
2018-07-11T09:46:45.851Z,59.30
2018-07-11T09:49:15.999Z,60.30
2018-07-11T09:51:46.091Z,59.00
2018-07-11T09:54:19.003Z,60.10
2018-07-11T09:56:50.053Z,60.70
2018-07-11T09:59:21.224Z,61.10
2018-07-11T10:01:51.501Z,60.70
2018-07-11T10:04:21.745Z,61.30
2018-07-11T10:06:51.877Z,61.10
2018-07-11T10:09:22.017Z,60.40
2018-07-11T10:11:53.101Z,60.30
2018-07-11T10:14:23.676Z,60.30
2018-07-11T10:16:54.871Z,60.40
2018-07-11T10:19:25.138Z,60.80
2018-07-11T10:21:55.293Z,59.70
2018-07-11T10:24:25.391Z,59.90
2018-07-11T10:26:55.624Z,59.00
2018-07-11T10:29:25.835Z,59.50
2018-07-11T10:31:56.070Z,58.70
2018-07-11T10:34:26.279Z,58.70
2018-07-11T10:36:56.690Z,58.90
2018-07-11T10:39:26.898Z,58.70
2018-07-11T10:41:57.045Z,57.50
2018-07-11T10:44:27.121Z,58.00
2018-07-11T10:47:02.448Z,57.20
2018-07-11T10:49:32.535Z,56.90
2018-07-11T10:52:02.747Z,56.90
2018-07-11T10:54:33.597Z,55.80
2018-07-11T10:57:03.783Z,56.40
2018-07-11T10:59:34.288Z,56.40
2018-07-11T11:02:04.497Z,57.40
2018-07-11T11:04:34.628Z,58.00
2018-07-11T11:07:04.687Z,58.10
2018-07-11T11:09:34.790Z,57.90
2018-07-11T11:12:05.112Z,57.60
2018-07-11T11:14:35.311Z,57.80
2018-07-11T11:17:05.476Z,57.90
2018-07-11T11:19:36.001Z,58.20
2018-07-11T11:22:06.630Z,58.60
2018-07-11T11:24:36.692Z,58.10
2018-07-11T11:27:06.984Z,57.50
2018-07-11T11:29:37.088Z,56.10
2018-07-11T11:32:07.433Z,56.10
2018-07-11T11:34:37.336Z,56.20
2018-07-11T11:37:08.058Z,56.00
2018-07-11T11:39:37.973Z,56.30
2018-07-11T11:42:08.341Z,55.80
2018-07-11T11:44:38.335Z,55.80
2018-07-11T11:47:08.404Z,55.50
2018-07-11T11:49:39.424Z,55.40
2018-07-11T11:52:09.810Z,55.40
2018-07-11T11:54:39.818Z,55.20
2018-07-11T11:57:10.028Z,54.70
2018-07-11T11:59:40.147Z,54.60
2018-07-11T12:02:10.186Z,53.60
2018-07-11T12:04:40.169Z,53.40
2018-07-11T12:07:10.397Z,52.60
2018-07-11T12:09:40.612Z,52.10
2018-07-11T12:12:10.994Z,51.70
2018-07-11T12:14:41.106Z,51.50
2018-07-11T12:17:11.336Z,50.50
2018-07-11T12:19:42.372Z,49.70
2018-07-11T12:22:18.653Z,49.20
2018-07-11T12:24:48.759Z,48.90
2018-07-11T12:27:19.406Z,48.90
2018-07-11T12:29:51.374Z,48.90
2018-07-11T12:32:21.914Z,48.40
2018-07-11T12:34:51.905Z,47.80
2018-07-11T12:37:22.357Z,47.00
2018-07-11T12:39:52.456Z,45.90
2018-07-11T12:42:22.479Z,46.50
2018-07-11T12:44:52.757Z,46.40
2018-07-11T12:47:29.153Z,45.80
2018-07-11T12:50:06.949Z,45.70
2018-07-11T12:52:37.303Z,46.30
2018-07-11T12:55:07.968Z,46.50
2018-07-11T12:57:38.185Z,46.50
2018-07-11T13:00:08.381Z,45.70
2018-07-11T13:02:38.661Z,46.10
2018-07-11T13:05:08.821Z,46.10
2018-07-11T13:07:38.974Z,46.30
2018-07-11T13:10:09.108Z,45.30
2018-07-11T13:12:39.169Z,45.20
2018-07-11T13:15:09.416Z,44.50
2018-07-11T13:17:39.765Z,44.90
2018-07-11T13:20:11.185Z,45.70
2018-07-11T13:22:41.352Z,45.80
2018-07-11T13:25:11.509Z,46.10
2018-07-11T13:27:41.622Z,46.70
2018-07-11T13:30:11.811Z,45.50
2018-07-11T13:32:42.162Z,45.10
2018-07-11T13:35:12.338Z,44.40
2018-07-11T13:37:42.543Z,44.00
2018-07-11T13:40:12.591Z,43.60
2018-07-11T13:42:42.577Z,42.30
2018-07-11T13:45:13.947Z,42.50
2018-07-11T13:47:43.827Z,42.40
2018-07-11T13:50:13.791Z,42.10
2018-07-11T13:52:44.088Z,41.80
2018-07-11T13:55:14.342Z,41.60
2018-07-11T13:57:44.645Z,42.50
2018-07-11T14:00:15.698Z,42.10
2018-07-11T14:02:46.628Z,42.70
2018-07-11T14:05:16.627Z,42.40
2018-07-11T14:07:47.463Z,42.90
2018-07-11T14:10:17.601Z,42.20
2018-07-11T14:12:47.943Z,42.70
2018-07-11T14:15:18.430Z,43.20
2018-07-11T14:17:48.627Z,43.10
2018-07-11T14:20:18.837Z,43.30
2018-07-11T14:22:49.377Z,43.60
2018-07-11T14:25:21.159Z,43.50
2018-07-11T14:27:51.552Z,43.40
2018-07-11T14:30:25.263Z,43.80
2018-07-11T14:33:03.827Z,42.90
2018-07-11T14:35:35.650Z,42.70
2018-07-11T14:38:05.530Z,43.50
2018-07-11T14:40:35.541Z,41.90
2018-07-11T14:43:05.547Z,41.70
2018-07-11T14:45:35.760Z,40.40
2018-07-11T14:48:10.456Z,40.40
2018-07-11T14:50:40.580Z,40.60
2018-07-11T14:53:10.728Z,42.00
2018-07-11T14:55:40.726Z,40.20
2018-07-11T14:58:11.151Z,34.40
2018-07-11T15:00:41.291Z,29.50
2018-07-11T15:03:11.797Z,26.30
2018-07-11T15:05:42.760Z,24.70
2018-07-11T15:08:12.912Z,25.00
2018-07-11T15:10:43.040Z,26.60
2018-07-11T15:13:13.297Z,29.20
2018-07-11T15:15:43.444Z,31.70
2018-07-11T15:18:14.320Z,34.20
2018-07-11T15:20:44.395Z,35.40
2018-07-11T15:23:15.105Z,37.10
2018-07-11T15:25:45.303Z,38.50
2018-07-11T15:28:15.478Z,39.90
2018-07-11T15:30:45.625Z,41.20
2018-07-11T15:33:16.000Z,42.60
2018-07-11T15:35:46.808Z,44.00
2018-07-11T15:38:17.066Z,44.50
2018-07-11T15:40:47.354Z,45.10
2018-07-11T15:43:17.991Z,46.00
2018-07-11T15:45:48.121Z,47.00
2018-07-11T15:48:18.165Z,47.60
2018-07-11T15:50:48.386Z,47.90
2018-07-11T15:53:21.382Z,48.30
2018-07-11T15:55:52.560Z,48.40
2018-07-11T15:58:25.117Z,48.80
2018-07-11T16:00:55.985Z,49.10
2018-07-11T16:03:28.053Z,49.90
2018-07-11T16:05:59.756Z,47.60
2018-07-11T16:08:30.065Z,45.10
2018-07-11T16:11:04.511Z,43.40
2018-07-11T16:13:34.603Z,42.80
2018-07-11T16:16:04.715Z,42.50
2018-07-11T16:18:34.848Z,42.60
2018-07-11T16:21:05.796Z,42.60
2018-07-11T16:23:35.895Z,42.40
2018-07-11T16:26:06.020Z,43.10
2018-07-11T16:28:36.155Z,43.30
2018-07-11T16:31:06.200Z,43.00
2018-07-11T16:33:36.448Z,43.10
2018-07-11T16:36:06.574Z,43.90
2018-07-11T16:38:36.846Z,44.40
2018-07-11T16:41:07.007Z,44.90
2018-07-11T16:43:37.177Z,45.40
2018-07-11T16:46:07.260Z,45.40
2018-07-11T16:48:37.918Z,46.30
2018-07-11T16:51:08.642Z,46.40
2018-07-11T16:53:39.913Z,47.60
2018-07-11T16:56:10.216Z,47.20
2018-07-11T16:58:51.738Z,47.60
2018-07-11T17:01:30.256Z,48.70
2018-07-11T17:04:02.383Z,51.50
2018-07-11T17:06:32.557Z,53.50
2018-07-11T17:09:03.099Z,54.30
2018-07-11T17:11:33.147Z,54.90
2018-07-11T17:14:05.133Z,54.80
2018-07-11T17:16:45.020Z,54.70
2018-07-11T17:19:23.523Z,54.40
2018-07-11T17:21:53.799Z,54.30
2018-07-11T17:24:23.977Z,54.80
2018-07-11T17:26:58.593Z,55.30
2018-07-11T17:29:30.675Z,55.80
2018-07-11T17:32:06.824Z,56.20
2018-07-11T17:34:39.194Z,56.30
2018-07-11T17:37:10.928Z,56.60
2018-07-11T17:39:54.378Z,56.90
2018-07-11T17:42:29.562Z,57.40
2018-07-11T17:45:22.102Z,57.60
2018-07-11T17:48:35.861Z,58.00
2018-07-11T17:52:20.070Z,58.10
2018-07-11T17:55:11.340Z,58.00
2018-07-11T17:57:54.279Z,57.60
2018-07-11T18:00:33.906Z,57.70
2018-07-11T18:05:23.482Z,57.60
2018-07-11T18:07:53.701Z,57.50
2018-07-11T18:10:37.923Z,57.80
2018-07-11T18:13:30.039Z,57.90
2018-07-11T18:18:11.890Z,57.80
2018-07-11T18:21:17.105Z,58.10
2018-07-11T18:24:38.430Z,58.50
2018-07-11T18:31:44.192Z,58.90
2018-07-11T18:35:35.483Z,58.90
2018-07-11T18:38:36.904Z,58.90
2018-07-11T18:41:19.122Z,59.30
2018-07-11T18:44:08.306Z,59.50
2018-07-11T18:47:03.260Z,59.50
2018-07-11T18:49:47.740Z,59.60
2018-07-11T18:52:54.336Z,59.50
2018-07-11T18:55:33.966Z,59.50
2018-07-11T18:58:45.886Z,59.80
2018-07-11T19:01:34.583Z,59.80
2018-07-11T19:04:23.475Z,59.90
2018-07-11T19:07:12.891Z,60.40
2018-07-11T19:09:52.378Z,60.30
2018-07-11T19:12:30.253Z,60.60
2018-07-11T19:15:16.471Z,60.40
2018-07-11T19:18:13.173Z,60.70
2018-07-11T19:21:01.065Z,60.70
2018-07-11T19:23:49.199Z,60.70
2018-07-11T19:27:05.801Z,60.80
2018-07-11T19:30:07.999Z,60.70
2018-07-11T19:32:52.684Z,60.40
2018-07-11T19:36:12.576Z,60.60
2018-07-11T19:39:56.816Z,60.30
2018-07-11T19:43:17.716Z,60.00
2018-07-11T19:46:04.378Z,59.40
2018-07-11T19:49:58.065Z,58.70
2018-07-11T19:52:48.794Z,58.50
2018-07-11T19:56:54.256Z,58.30
2018-07-11T19:59:24.804Z,58.50
2018-07-11T20:01:55.305Z,58.20
2018-07-11T20:04:25.894Z,58.00
2018-07-11T20:06:56.062Z,58.00
2018-07-11T20:09:26.400Z,58.00
2018-07-11T20:11:57.383Z,58.10
2018-07-11T20:14:28.410Z,58.00
2018-07-11T20:16:58.526Z,58.20
2018-07-11T20:19:29.095Z,58.30
2018-07-11T20:21:59.679Z,58.50
2018-07-11T20:24:29.884Z,58.50
2018-07-11T20:27:00.104Z,58.70
2018-07-11T20:29:31.365Z,58.80
2018-07-11T20:32:01.439Z,58.70
2018-07-11T20:34:31.617Z,58.90
2018-07-11T20:37:01.823Z,59.00
2018-07-11T20:39:31.927Z,59.60
2018-07-11T20:42:02.055Z,59.40
2018-07-11T20:44:33.065Z,59.50
2018-07-11T20:47:04.941Z,59.40
2018-07-11T20:49:36.053Z,59.50
2018-07-11T20:52:06.901Z,59.70
2018-07-11T20:54:38.254Z,59.70
2018-07-11T20:57:08.573Z,59.60
2018-07-11T20:59:55.575Z,59.60
2018-07-11T21:02:42.636Z,59.50
2018-07-11T21:06:26.619Z,59.50
2018-07-11T21:09:46.395Z,59.30
2018-07-11T21:12:35.618Z,59.50
2018-07-11T21:15:29.138Z,60.00
2018-07-11T21:19:08.861Z,60.10
2018-07-11T21:21:40.075Z,60.50
2018-07-11T21:24:11.305Z,60.00
2018-07-11T21:26:42.142Z,60.20
2018-07-11T21:29:12.368Z,60.40
2018-07-11T21:31:43.168Z,61.00
2018-07-11T21:34:14.040Z,60.80
2018-07-11T21:36:45.530Z,60.10
2018-07-11T21:39:16.088Z,60.20
2018-07-11T21:41:46.746Z,60.80
2018-07-11T21:44:18.224Z,60.10
2018-07-11T21:46:48.987Z,60.20
2018-07-11T21:49:21.552Z,60.40
2018-07-11T21:51:53.117Z,60.50
2018-07-11T21:54:23.154Z,61.00
2018-07-11T21:56:53.266Z,61.10
2018-07-11T21:59:23.932Z,61.20
2018-07-11T22:01:54.123Z,61.60
2018-07-11T22:04:24.274Z,61.50
2018-07-11T22:06:54.422Z,61.80
2018-07-11T22:09:24.540Z,62.20
2018-07-11T22:11:54.694Z,62.50
2018-07-11T22:14:24.844Z,62.20
2018-07-11T22:16:55.077Z,62.50
2018-07-11T22:19:33.776Z,62.70
2018-07-11T22:22:02.145Z,62.90
2018-07-11T22:24:30.500Z,62.40
2018-07-11T22:26:58.881Z,62.40
2018-07-11T22:29:27.244Z,61.90
2018-07-11T22:31:55.598Z,62.10
2018-07-11T22:34:23.951Z,62.30
2018-07-11T22:36:52.316Z,62.60
2018-07-11T22:39:20.708Z,62.70
2018-07-11T22:41:49.168Z,62.60
2018-07-11T22:44:17.519Z,62.50
2018-07-11T22:46:45.964Z,63.00
2018-07-11T22:49:14.379Z,62.30
2018-07-11T22:51:42.716Z,62.30
2018-07-11T22:54:11.406Z,62.40
2018-07-11T22:56:39.744Z,62.70
2018-07-11T22:59:08.069Z,63.00
2018-07-11T23:01:36.525Z,62.90
2018-07-11T23:04:04.941Z,63.10
2018-07-11T23:06:33.303Z,63.20
2018-07-11T23:09:01.694Z,62.90
2018-07-11T23:11:30.075Z,63.20
2018-07-11T23:13:58.435Z,63.20
2018-07-11T23:16:26.795Z,63.20
2018-07-11T23:18:55.181Z,63.20
2018-07-11T23:21:23.557Z,63.10
2018-07-11T23:23:52.558Z,63.50
2018-07-11T23:26:20.973Z,63.80
2018-07-11T23:28:49.892Z,64.00
2018-07-11T23:31:18.226Z,64.10
2018-07-11T23:33:46.824Z,64.30
2018-07-11T23:36:15.153Z,64.40
2018-07-11T23:38:43.501Z,64.50
2018-07-11T23:41:11.862Z,64.60
2018-07-11T23:43:40.210Z,64.80
2018-07-11T23:46:08.608Z,64.90
2018-07-11T23:48:36.965Z,64.90
2018-07-11T23:51:05.317Z,65.20
2018-07-11T23:53:33.948Z,65.30
2018-07-11T23:56:02.256Z,65.60
2018-07-11T23:58:30.623Z,65.80
